createdAt,value
2019-03-11T00:00:24.986Z,93.91
2019-03-11T00:01:25.032Z,94.12
2019-03-11T00:02:24.994Z,94.32
2019-03-11T00:03:24.977Z,93.80
2019-03-11T00:04:25.680Z,93.70
2019-03-11T00:05:24.939Z,93.29
2019-03-11T00:06:24.976Z,93.70
2019-03-11T00:07:24.980Z,93.18
2019-03-11T00:08:24.933Z,93.80
2019-03-11T00:09:24.914Z,93.70
2019-03-11T00:10:24.932Z,93.60
2019-03-11T00:11:24.893Z,93.18
2019-03-11T00:12:24.862Z,93.18
2019-03-11T00:13:24.840Z,93.39
2019-03-11T00:14:24.852Z,93.60
2019-03-11T00:15:24.850Z,93.29
2019-03-11T00:16:24.817Z,92.55
2019-03-11T00:17:24.817Z,93.29
2019-03-11T00:18:24.824Z,93.29
2019-03-11T00:19:24.857Z,93.29
2019-03-11T00:20:24.847Z,93.39
2019-03-11T00:21:24.817Z,93.70
2019-03-11T00:22:24.774Z,93.49
2019-03-11T00:23:24.748Z,93.39
2019-03-11T00:24:24.795Z,93.70
2019-03-11T00:25:24.759Z,93.70
2019-03-11T00:26:24.760Z,93.70
2019-03-11T00:27:24.766Z,93.07
2019-03-11T00:28:24.740Z,92.45
2019-03-11T00:29:24.774Z,92.55
2019-03-11T00:30:24.930Z,93.29
2019-03-11T00:31:24.657Z,93.49
2019-03-11T00:32:24.688Z,93.60
2019-03-11T00:33:24.992Z,93.70
2019-03-11T00:34:24.657Z,93.18
2019-03-11T00:35:24.629Z,93.39
2019-03-11T00:36:24.651Z,93.29
2019-03-11T00:37:24.725Z,93.39
2019-03-11T00:38:24.626Z,92.86
2019-03-11T00:39:24.614Z,92.39
2019-03-11T00:40:24.608Z,92.86
2019-03-11T00:41:24.614Z,92.35
2019-03-11T00:42:24.576Z,92.24
2019-03-11T00:43:24.563Z,92.24
2019-03-11T00:44:24.537Z,92.55
2019-03-11T00:45:24.607Z,92.45
2019-03-11T00:46:24.528Z,92.24
2019-03-11T00:47:24.537Z,92.60
2019-03-11T00:48:24.584Z,92.86
2019-03-11T00:49:24.488Z,92.24
2019-03-11T00:50:24.477Z,92.55
2019-03-11T00:51:24.451Z,92.14
2019-03-11T00:52:24.495Z,92.49
2019-03-11T00:53:24.487Z,92.08
2019-03-11T00:54:24.446Z,92.14
2019-03-11T00:55:24.589Z,92.03
2019-03-11T00:56:24.434Z,92.18
2019-03-11T00:57:24.385Z,92.29
2019-03-11T00:58:24.452Z,92.55
2019-03-11T00:59:24.449Z,91.83
2019-03-11T01:00:24.407Z,92.14
2019-03-11T01:01:24.393Z,92.29
2019-03-11T01:02:24.372Z,91.93
2019-03-11T01:03:24.334Z,91.72
2019-03-11T01:04:24.320Z,91.72
2019-03-11T01:05:24.347Z,91.62
2019-03-11T01:06:24.320Z,91.77
2019-03-11T01:07:24.374Z,91.20
2019-03-11T01:08:24.313Z,91.77
2019-03-11T01:09:24.319Z,91.77
2019-03-11T01:10:24.267Z,91.83
2019-03-11T01:11:24.366Z,92.08
2019-03-11T01:12:24.248Z,91.83
2019-03-11T01:13:24.241Z,91.66
2019-03-11T01:14:24.233Z,91.83
2019-03-11T01:15:24.211Z,91.72
2019-03-11T01:16:24.210Z,91.31
2019-03-11T01:17:24.190Z,91.46
2019-03-11T01:18:24.221Z,91.00
2019-03-11T01:19:24.211Z,91.77
2019-03-11T01:20:24.200Z,91.52
2019-03-11T01:21:24.166Z,91.00
2019-03-11T01:22:24.184Z,90.58
2019-03-11T01:23:24.157Z,90.69
2019-03-11T01:24:24.218Z,90.37
2019-03-11T01:25:24.113Z,90.58
2019-03-11T01:26:24.095Z,90.16
2019-03-11T01:27:24.093Z,90.52
2019-03-11T01:28:24.120Z,90.47
2019-03-11T01:29:24.055Z,90.26
2019-03-11T01:30:24.072Z,89.79
2019-03-11T01:31:24.050Z,89.69
2019-03-11T01:32:24.044Z,90.10
2019-03-11T01:33:24.062Z,90.10
2019-03-11T01:34:24.000Z,91.25
2019-03-11T01:35:24.006Z,91.20
2019-03-11T01:36:24.027Z,90.52
2019-03-11T01:37:23.985Z,90.62
2019-03-11T01:38:24.002Z,91.10
2019-03-11T01:39:23.953Z,90.47
2019-03-11T01:40:23.953Z,90.16
2019-03-11T01:41:24.009Z,90.41
2019-03-11T01:42:23.955Z,90.26
2019-03-11T01:43:23.937Z,90.52
2019-03-11T01:44:23.940Z,90.62
2019-03-11T01:45:23.916Z,90.72
2019-03-11T01:46:23.920Z,90.79
2019-03-11T01:47:23.864Z,91.62
2019-03-11T01:48:33.327Z,91.35
2019-03-11T01:49:24.111Z,91.35
2019-03-11T01:50:23.861Z,91.52
2019-03-11T01:51:32.857Z,90.58
2019-03-11T01:52:23.857Z,90.62
2019-03-11T01:53:23.804Z,91.35
2019-03-11T01:54:23.861Z,91.46
2019-03-11T01:55:23.826Z,91.35
2019-03-11T01:56:23.806Z,91.04
2019-03-11T01:57:23.821Z,90.72
2019-03-11T01:58:23.851Z,90.41
2019-03-11T01:59:23.767Z,90.52
2019-03-11T02:00:23.782Z,90.83
2019-03-11T02:01:23.827Z,90.52
2019-03-11T02:02:23.775Z,90.20
2019-03-11T02:03:23.713Z,89.79
2019-03-11T02:04:23.710Z,89.79
2019-03-11T02:05:23.696Z,89.95
2019-03-11T02:06:23.712Z,90.10
2019-03-11T02:07:23.688Z,89.75
2019-03-11T02:08:23.711Z,89.58
2019-03-11T02:09:23.684Z,89.37
2019-03-11T02:10:23.642Z,89.69
2019-03-11T02:11:23.641Z,89.54
2019-03-11T02:12:23.644Z,89.54
2019-03-11T02:13:23.620Z,89.85
2019-03-11T02:14:23.711Z,90.20
2019-03-11T02:15:23.609Z,89.58
2019-03-11T02:16:23.580Z,89.64
2019-03-11T02:17:23.726Z,90.06
2019-03-11T02:18:24.249Z,90.16
2019-03-11T02:19:23.567Z,89.69
2019-03-11T02:20:23.553Z,89.37
2019-03-11T02:21:23.568Z,89.69
2019-03-11T02:22:23.543Z,89.37
2019-03-11T02:23:23.555Z,89.89
2019-03-11T02:24:23.488Z,89.58
2019-03-11T02:25:23.518Z,90.06
2019-03-11T02:26:23.468Z,90.00
2019-03-11T02:27:23.488Z,89.69
2019-03-11T02:28:23.532Z,89.79
2019-03-11T02:29:23.444Z,89.69
2019-03-11T02:30:23.460Z,90.26
2019-03-11T02:31:23.453Z,89.48
2019-03-11T02:32:23.405Z,89.48
2019-03-11T02:33:23.413Z,89.48
2019-03-11T02:34:23.489Z,89.89
2019-03-11T02:35:23.384Z,89.75
2019-03-11T02:36:23.398Z,90.10
2019-03-11T02:37:23.366Z,89.79
2019-03-11T02:38:23.375Z,90.47
2019-03-11T02:39:23.355Z,90.20
2019-03-11T02:40:23.517Z,90.20
2019-03-11T02:41:23.357Z,90.00
2019-03-11T02:42:23.314Z,90.83
2019-03-11T02:43:23.309Z,90.62
2019-03-11T02:44:23.320Z,89.89
2019-03-11T02:45:23.317Z,90.00
2019-03-11T02:46:23.276Z,90.20
2019-03-11T02:47:23.328Z,90.72
2019-03-11T02:48:23.295Z,90.62
2019-03-11T02:49:23.231Z,91.46
2019-03-11T02:50:23.241Z,90.93
2019-03-11T02:51:23.325Z,90.62
2019-03-11T02:52:23.198Z,91.35
2019-03-11T02:53:23.227Z,91.35
2019-03-11T02:54:23.260Z,91.91
2019-03-11T02:55:23.206Z,91.60
2019-03-11T02:56:23.180Z,91.39
2019-03-11T02:57:23.220Z,91.91
2019-03-11T02:58:23.152Z,92.64
2019-03-11T02:59:23.177Z,92.12
2019-03-11T03:00:23.149Z,92.43
2019-03-11T03:01:23.113Z,92.99
2019-03-11T03:02:23.125Z,93.41
2019-03-11T03:03:23.137Z,93.62
2019-03-11T03:04:23.108Z,93.41
2019-03-11T03:05:23.156Z,93.05
2019-03-11T03:06:23.072Z,93.52
2019-03-11T03:07:23.070Z,93.73
2019-03-11T03:08:23.064Z,93.41
2019-03-11T03:09:23.047Z,93.52
2019-03-11T03:10:23.058Z,93.93
2019-03-11T03:11:23.028Z,94.14
2019-03-11T03:12:23.005Z,94.35
2019-03-11T03:13:23.014Z,94.35
2019-03-11T03:14:23.054Z,94.04
2019-03-11T03:15:23.030Z,94.35
2019-03-11T03:16:22.992Z,94.24
2019-03-11T03:17:22.936Z,93.93
2019-03-11T03:18:22.980Z,94.76
2019-03-11T03:19:22.937Z,94.56
2019-03-11T03:20:22.962Z,94.14
2019-03-11T03:21:22.930Z,94.76
2019-03-11T03:22:22.903Z,94.66
2019-03-11T03:23:23.756Z,94.66
2019-03-11T03:24:22.945Z,94.66
2019-03-11T03:25:33.774Z,94.24
2019-03-11T03:26:23.844Z,94.24
2019-03-11T03:27:22.934Z,94.60
2019-03-11T03:28:22.837Z,95.18
2019-03-11T03:29:22.834Z,95.60
2019-03-11T03:30:22.910Z,95.18
2019-03-11T03:31:22.796Z,94.92
2019-03-11T03:32:22.826Z,95.02
2019-03-11T03:33:22.793Z,95.43
2019-03-11T03:34:22.778Z,94.92
2019-03-11T03:35:22.802Z,95.43
2019-03-11T03:36:22.771Z,95.75
2019-03-11T03:37:22.764Z,95.12
2019-03-11T03:38:30.376Z,95.33
2019-03-11T03:39:23.731Z,95.39
2019-03-11T03:40:22.715Z,95.39
2019-03-11T03:41:22.726Z,95.43
2019-03-11T03:42:22.711Z,95.12
2019-03-11T03:43:22.676Z,95.12
2019-03-11T03:44:22.682Z,94.92
2019-03-11T03:45:22.648Z,94.66
2019-03-11T03:46:22.673Z,95.43
2019-03-11T03:47:22.635Z,95.64
2019-03-11T03:48:22.662Z,95.81
2019-03-11T03:49:22.621Z,96.33
2019-03-11T03:50:22.598Z,96.12
2019-03-11T03:51:22.613Z,96.12
2019-03-11T03:52:22.581Z,96.22
2019-03-11T03:53:22.583Z,96.22
2019-03-11T03:54:22.562Z,96.33
2019-03-11T03:55:22.545Z,95.60
2019-03-11T03:56:25.885Z,95.18
2019-03-11T03:57:22.539Z,94.98
2019-03-11T03:58:22.550Z,96.22
2019-03-11T03:59:22.508Z,95.29
2019-03-11T04:00:22.503Z,94.87
2019-03-11T04:01:22.479Z,95.18
2019-03-11T04:02:22.532Z,95.60
2019-03-11T04:03:22.491Z,95.39
2019-03-11T04:04:22.486Z,95.29
2019-03-11T04:05:22.468Z,94.87
2019-03-11T04:06:22.492Z,94.87
2019-03-11T04:07:22.448Z,94.66
2019-03-11T04:08:22.485Z,94.98
2019-03-11T04:09:22.415Z,95.39
2019-03-11T04:10:22.418Z,95.70
2019-03-11T04:11:22.401Z,96.43
2019-03-11T04:12:22.381Z,96.22
2019-03-11T04:13:22.390Z,96.01
2019-03-11T04:14:22.371Z,96.22
2019-03-11T04:15:22.338Z,96.22
2019-03-11T04:16:22.503Z,96.16
2019-03-11T04:17:22.388Z,96.12
2019-03-11T04:18:22.379Z,96.33
2019-03-11T04:19:22.334Z,96.64
2019-03-11T04:20:22.314Z,96.06
2019-03-11T04:21:22.312Z,96.43
2019-03-11T04:22:22.293Z,96.33
2019-03-11T04:23:22.293Z,95.81
2019-03-11T04:24:22.263Z,96.64
2019-03-11T04:25:22.255Z,96.69
2019-03-11T04:26:22.269Z,96.64
2019-03-11T04:27:22.224Z,96.58
2019-03-11T04:28:22.292Z,96.12
2019-03-11T04:29:22.215Z,96.22
2019-03-11T04:30:22.230Z,96.64
2019-03-11T04:31:22.187Z,96.43
2019-03-11T04:32:22.190Z,96.12
2019-03-11T04:33:22.167Z,96.75
2019-03-11T04:34:22.160Z,96.43
2019-03-11T04:35:22.170Z,96.43
2019-03-11T04:36:22.152Z,96.22
2019-03-11T04:37:22.142Z,96.33
2019-03-11T04:38:22.118Z,96.37
2019-03-11T04:39:22.137Z,96.26
2019-03-11T04:40:22.103Z,96.53
2019-03-11T04:41:22.070Z,96.43
2019-03-11T04:42:22.800Z,96.43
2019-03-11T04:43:22.080Z,96.12
2019-03-11T04:44:22.061Z,96.85
2019-03-11T04:45:22.051Z,96.33
2019-03-11T04:46:22.076Z,96.33
2019-03-11T04:47:22.158Z,96.53
2019-03-11T04:48:22.007Z,96.75
2019-03-11T04:49:22.021Z,96.64
2019-03-11T04:50:22.004Z,96.64
2019-03-11T04:51:21.961Z,96.75
2019-03-11T04:52:22.004Z,96.22
2019-03-11T04:53:22.010Z,96.33
2019-03-11T04:54:21.973Z,96.43
2019-03-11T04:55:21.935Z,96.43
2019-03-11T04:56:22.051Z,96.12
2019-03-11T04:57:23.509Z,96.49
2019-03-11T04:58:21.900Z,96.75
2019-03-11T04:59:21.934Z,96.53
2019-03-11T05:00:21.980Z,96.53
2019-03-11T05:01:21.977Z,96.64
2019-03-11T05:02:21.901Z,96.53
2019-03-11T05:03:21.845Z,96.43
2019-03-11T05:04:21.836Z,96.28
2019-03-11T05:05:21.906Z,96.64
2019-03-11T05:06:21.878Z,96.64
2019-03-11T05:07:21.824Z,96.39
2019-03-11T05:08:21.816Z,96.43
2019-03-11T05:09:22.298Z,96.22
2019-03-11T05:10:21.776Z,96.59
2019-03-11T05:11:35.020Z,96.22
2019-03-11T05:12:21.772Z,96.75
2019-03-11T05:13:32.944Z,96.18
2019-03-11T05:14:21.740Z,95.76
2019-03-11T05:15:23.679Z,94.51
2019-03-11T05:16:21.743Z,95.14
2019-03-11T05:17:21.807Z,95.35
2019-03-11T05:18:21.760Z,95.45
2019-03-11T05:19:31.943Z,95.35
2019-03-11T05:20:21.739Z,95.35
2019-03-11T05:21:21.682Z,95.45
2019-03-11T05:22:29.876Z,94.89
2019-03-11T05:23:21.693Z,94.82
2019-03-11T05:24:21.637Z,95.30
2019-03-11T05:25:21.666Z,95.14
2019-03-11T05:26:21.619Z,95.35
2019-03-11T05:27:21.602Z,95.03
2019-03-11T05:28:21.633Z,95.03
2019-03-11T05:29:21.634Z,94.93
2019-03-11T05:30:21.590Z,94.68
2019-03-11T05:31:21.569Z,95.09
2019-03-11T05:32:21.626Z,94.68
2019-03-11T05:33:21.562Z,94.82
2019-03-11T05:34:21.611Z,95.20
2019-03-11T05:35:21.564Z,94.68
2019-03-11T05:36:21.525Z,94.57
2019-03-11T05:37:21.522Z,94.68
2019-03-11T05:38:21.554Z,94.37
2019-03-11T05:39:21.506Z,93.74
2019-03-11T05:40:21.524Z,93.95
2019-03-11T05:41:21.510Z,93.43
2019-03-11T05:42:21.485Z,93.74
2019-03-11T05:43:21.488Z,93.85
2019-03-11T05:44:21.475Z,93.54
2019-03-11T05:45:21.427Z,93.43
2019-03-11T05:46:21.433Z,93.74
2019-03-11T05:47:21.437Z,93.64
2019-03-11T05:48:21.511Z,94.16
2019-03-11T05:49:21.396Z,94.06
2019-03-11T05:50:21.435Z,94.26
2019-03-11T05:51:31.042Z,94.26
2019-03-11T05:52:22.366Z,94.01
2019-03-11T05:53:21.360Z,92.97
2019-03-11T05:54:21.381Z,93.54
2019-03-11T05:55:21.362Z,93.64
2019-03-11T05:56:21.299Z,92.76
2019-03-11T05:57:21.343Z,93.07
2019-03-11T05:58:21.319Z,93.49
2019-03-11T05:59:21.877Z,93.49
2019-03-11T06:00:21.380Z,93.29
2019-03-11T06:01:21.266Z,92.24
2019-03-11T06:02:21.308Z,92.76
2019-03-11T06:03:21.275Z,92.03
2019-03-11T06:04:21.275Z,91.83
2019-03-11T06:05:21.877Z,92.03
2019-03-11T06:06:21.207Z,91.31
2019-03-11T06:07:21.297Z,91.06
2019-03-11T06:08:21.187Z,90.47
2019-03-11T06:09:21.223Z,89.43
2019-03-11T06:10:21.440Z,89.95
2019-03-11T06:11:21.295Z,90.69
2019-03-11T06:12:21.220Z,89.75
2019-03-11T06:13:21.185Z,89.50
2019-03-11T06:14:21.180Z,89.08
2019-03-11T06:15:21.161Z,89.39
2019-03-11T06:16:21.223Z,89.39
2019-03-11T06:17:21.119Z,90.44
2019-03-11T06:18:21.082Z,88.35
2019-03-11T06:19:21.113Z,89.39
2019-03-11T06:20:21.155Z,88.56
2019-03-11T06:21:21.118Z,88.56
2019-03-11T06:22:21.093Z,88.42
2019-03-11T06:23:21.270Z,88.46
2019-03-11T06:24:21.940Z,87.94
2019-03-11T06:25:21.013Z,87.01
2019-03-11T06:26:21.079Z,87.42
2019-03-11T06:27:20.981Z,88.04
2019-03-11T06:28:21.020Z,87.79
2019-03-11T06:29:30.037Z,87.59
2019-03-11T06:30:21.999Z,87.59
2019-03-11T06:31:21.011Z,86.55
2019-03-11T06:32:21.093Z,86.96
2019-03-11T06:33:20.982Z,86.96
2019-03-11T06:34:20.906Z,86.13
2019-03-11T06:35:20.900Z,86.65
2019-03-11T06:36:20.899Z,86.96
2019-03-11T06:37:20.889Z,87.03
2019-03-11T06:38:20.895Z,86.93
2019-03-11T06:39:20.852Z,85.99
2019-03-11T06:40:20.853Z,85.72
2019-03-11T06:41:20.852Z,85.78
2019-03-11T06:42:20.900Z,85.99
2019-03-11T06:43:20.930Z,85.99
2019-03-11T06:44:20.918Z,85.68
2019-03-11T06:45:20.791Z,85.57
2019-03-11T06:46:20.805Z,85.57
2019-03-11T06:47:20.781Z,85.68
2019-03-11T06:48:20.797Z,85.26
2019-03-11T06:49:20.800Z,85.68
2019-03-11T06:50:20.780Z,86.30
2019-03-11T06:51:20.819Z,85.47
2019-03-11T06:52:20.734Z,84.95
2019-03-11T06:53:20.703Z,85.16
2019-03-11T06:54:20.751Z,85.16
2019-03-11T06:55:20.727Z,85.43
2019-03-11T06:56:20.726Z,84.53
2019-03-11T06:57:20.678Z,84.43
2019-03-11T06:58:20.671Z,84.84
2019-03-11T06:59:20.654Z,85.16
2019-03-11T07:00:20.698Z,85.26
2019-03-11T07:01:20.625Z,84.84
2019-03-11T07:02:20.667Z,84.43
2019-03-11T07:03:20.615Z,84.95
2019-03-11T07:04:20.610Z,84.84
2019-03-11T07:05:21.467Z,84.12
2019-03-11T07:06:20.607Z,84.64
2019-03-11T07:07:20.585Z,84.81
2019-03-11T07:08:21.474Z,84.33
2019-03-11T07:09:20.751Z,84.74
2019-03-11T07:10:21.426Z,84.43
2019-03-11T07:11:20.627Z,84.19
2019-03-11T07:12:20.593Z,83.91
2019-03-11T07:13:20.625Z,84.12
2019-03-11T07:14:20.648Z,84.74
2019-03-11T07:15:20.557Z,83.50
2019-03-11T07:16:20.579Z,83.81
2019-03-11T07:17:20.598Z,84.43
2019-03-11T07:18:20.619Z,84.22
2019-03-11T07:19:20.476Z,84.70
2019-03-11T07:20:20.505Z,83.70
2019-03-11T07:21:20.557Z,83.98
2019-03-11T07:22:20.564Z,83.67
2019-03-11T07:23:20.454Z,82.98
2019-03-11T07:24:20.441Z,82.84
2019-03-11T07:25:20.950Z,82.94
2019-03-11T07:26:20.413Z,82.94
2019-03-11T07:27:20.452Z,82.32
2019-03-11T07:28:20.400Z,82.73
2019-03-11T07:29:20.353Z,82.70
2019-03-11T07:30:20.340Z,82.42
2019-03-11T07:31:20.327Z,82.70
2019-03-11T07:32:20.360Z,82.39
2019-03-11T07:33:20.356Z,83.22
2019-03-11T07:34:20.324Z,82.80
2019-03-11T07:35:20.463Z,82.49
2019-03-11T07:36:20.291Z,82.90
2019-03-11T07:37:20.333Z,82.49
2019-03-11T07:38:20.350Z,81.45
2019-03-11T07:39:20.292Z,81.97
2019-03-11T07:40:29.291Z,80.87
2019-03-11T07:41:21.238Z,81.24
2019-03-11T07:42:20.274Z,81.76
2019-03-11T07:43:20.355Z,81.49
2019-03-11T07:44:20.328Z,81.80
2019-03-11T07:45:20.381Z,82.49
2019-03-11T07:46:20.196Z,82.07
2019-03-11T07:47:20.379Z,81.70
2019-03-11T07:48:20.163Z,81.28
2019-03-11T07:49:20.141Z,82.84
2019-03-11T07:50:20.230Z,82.21
2019-03-11T07:51:20.150Z,82.73
2019-03-11T07:52:20.107Z,82.42
2019-03-11T07:53:20.121Z,82.63
2019-03-11T07:54:20.079Z,82.42
2019-03-11T07:55:20.089Z,82.70
2019-03-11T07:56:21.021Z,82.70
2019-03-11T07:57:20.067Z,82.84
2019-03-11T07:58:20.153Z,82.53
2019-03-11T07:59:20.050Z,83.11
2019-03-11T08:00:21.155Z,82.63
2019-03-11T08:01:20.952Z,82.42
2019-03-11T08:02:20.032Z,82.80
2019-03-11T08:03:20.897Z,81.90
2019-03-11T08:04:20.002Z,82.39
2019-03-11T08:05:19.998Z,82.49
2019-03-11T08:06:19.963Z,82.90
2019-03-11T08:07:20.088Z,81.76
2019-03-11T08:08:19.949Z,82.39
2019-03-11T08:09:19.965Z,81.76
2019-03-11T08:10:19.947Z,82.59
2019-03-11T08:11:19.904Z,82.49
2019-03-11T08:12:19.899Z,82.70
2019-03-11T08:13:21.395Z,81.45
2019-03-11T08:14:19.889Z,82.28
2019-03-11T08:15:19.873Z,82.70
2019-03-11T08:16:19.892Z,82.76
2019-03-11T08:17:19.855Z,82.55
2019-03-11T08:18:20.910Z,81.62
2019-03-11T08:19:19.889Z,81.72
2019-03-11T08:20:19.860Z,81.82
2019-03-11T08:21:19.840Z,82.03
2019-03-11T08:22:19.829Z,81.51
2019-03-11T08:23:19.856Z,81.62
2019-03-11T08:24:19.796Z,81.10
2019-03-11T08:25:19.859Z,80.89
2019-03-11T08:26:19.941Z,80.27
2019-03-11T08:27:19.747Z,80.37
2019-03-11T08:28:19.765Z,79.41
2019-03-11T08:29:19.723Z,79.41
2019-03-11T08:30:19.717Z,79.92
2019-03-11T08:31:19.724Z,79.10
2019-03-11T08:32:20.400Z,79.82
2019-03-11T08:33:19.730Z,79.82
2019-03-11T08:34:19.684Z,79.41
2019-03-11T08:35:19.697Z,79.51
2019-03-11T08:36:19.686Z,79.61
2019-03-11T08:37:19.711Z,79.30
2019-03-11T08:38:19.677Z,79.30
2019-03-11T08:39:19.678Z,79.10
2019-03-11T08:40:19.623Z,79.10
2019-03-11T08:41:19.644Z,79.34
2019-03-11T08:42:19.602Z,79.55
2019-03-11T08:43:19.602Z,79.61
2019-03-11T08:44:19.610Z,78.78
2019-03-11T08:45:19.586Z,78.78
2019-03-11T08:46:19.598Z,78.27
2019-03-11T08:47:19.592Z,78.37
2019-03-11T08:48:19.554Z,79.10
2019-03-11T08:49:19.585Z,78.33
2019-03-11T08:50:19.508Z,78.23
2019-03-11T08:51:19.519Z,78.33
2019-03-11T08:52:19.518Z,77.26
2019-03-11T08:53:19.512Z,77.78
2019-03-11T08:54:19.486Z,78.12
2019-03-11T08:55:19.459Z,77.50
2019-03-11T08:56:19.456Z,77.67
2019-03-11T08:57:19.450Z,77.50
2019-03-11T08:58:20.562Z,77.09
2019-03-11T08:59:19.493Z,76.98
2019-03-11T09:00:19.429Z,76.88
2019-03-11T09:01:19.447Z,77.05
2019-03-11T09:02:19.404Z,77.29
2019-03-11T09:03:19.398Z,77.29
2019-03-11T09:04:19.392Z,76.88
2019-03-11T09:05:19.367Z,76.46
2019-03-11T09:06:19.390Z,76.67
2019-03-11T09:07:21.143Z,76.46
2019-03-11T09:08:19.318Z,76.46
2019-03-11T09:09:19.357Z,76.78
2019-03-11T09:10:19.340Z,76.15
2019-03-11T09:11:19.322Z,76.88
2019-03-11T09:12:19.276Z,77.12
2019-03-11T09:13:19.289Z,77.29
2019-03-11T09:14:19.274Z,77.29
2019-03-11T09:15:19.302Z,77.40
2019-03-11T09:16:19.348Z,76.57
2019-03-11T09:17:19.480Z,76.74
2019-03-11T09:18:19.247Z,76.02
2019-03-11T09:19:19.235Z,75.81
2019-03-11T09:20:19.253Z,75.78
2019-03-11T09:21:19.226Z,74.84
2019-03-11T09:22:19.212Z,74.84
2019-03-11T09:23:19.188Z,75.05
2019-03-11T09:24:19.722Z,74.53
2019-03-11T09:25:19.166Z,74.84
2019-03-11T09:26:19.144Z,74.32
2019-03-11T09:27:19.205Z,74.43
2019-03-11T09:28:19.115Z,73.81
2019-03-11T09:29:19.110Z,73.98
2019-03-11T09:30:19.147Z,73.57
2019-03-11T09:31:19.078Z,73.88
2019-03-11T09:32:19.942Z,73.15
2019-03-11T09:33:19.907Z,73.54
2019-03-11T09:34:19.030Z,71.98
2019-03-11T09:35:19.085Z,72.16
2019-03-11T09:36:19.042Z,70.09
2019-03-11T09:37:19.033Z,70.47
2019-03-11T09:38:19.035Z,70.19
2019-03-11T09:39:19.041Z,70.09
2019-03-11T09:40:19.015Z,69.98
2019-03-11T09:41:19.010Z,70.92
2019-03-11T09:42:18.976Z,70.61
2019-03-11T09:43:19.918Z,70.09
2019-03-11T09:44:18.983Z,71.05
2019-03-11T09:45:18.980Z,70.22
2019-03-11T09:46:18.933Z,70.29
2019-03-11T09:47:18.993Z,71.53
2019-03-11T09:48:18.883Z,72.05
2019-03-11T09:49:18.896Z,71.57
2019-03-11T09:50:18.910Z,70.53
2019-03-11T09:51:18.894Z,70.87
2019-03-11T09:52:18.989Z,71.88
2019-03-11T09:54:38.136Z,72.81
2019-03-11T09:55:36.246Z,72.71
2019-03-11T09:56:43.178Z,71.78
2019-03-11T09:58:58.647Z,71.98
2019-03-11T10:00:08.919Z,72.74
2019-03-11T10:01:07.981Z,71.91
2019-03-11T10:02:09.433Z,72.33
2019-03-11T10:03:09.890Z,73.46
2019-03-11T10:06:53.395Z,73.91
2019-03-11T10:07:48.036Z,75.26
2019-03-11T10:08:48.085Z,75.26
2019-03-11T10:09:47.952Z,75.57
2019-03-11T10:10:47.967Z,75.78
2019-03-11T10:11:47.935Z,75.81
2019-03-11T10:12:47.918Z,76.61
2019-03-11T10:13:48.001Z,77.22
2019-03-11T10:14:47.905Z,76.71
2019-03-11T10:15:47.903Z,76.50
2019-03-11T10:16:47.861Z,76.81
2019-03-11T10:17:47.883Z,76.74
2019-03-11T10:18:50.228Z,77.22
2019-03-11T10:19:47.902Z,76.81
2019-03-11T10:20:47.879Z,77.33
2019-03-11T10:21:47.960Z,76.61
2019-03-11T10:22:47.897Z,76.36
2019-03-11T10:23:47.836Z,76.05
2019-03-11T10:24:48.775Z,74.91
2019-03-11T10:25:49.276Z,74.08
2019-03-11T10:26:48.773Z,74.60
2019-03-11T10:27:47.781Z,74.91
2019-03-11T10:28:47.853Z,74.91
2019-03-11T10:29:47.887Z,73.88
2019-03-11T10:30:47.776Z,74.88
2019-03-11T10:31:48.771Z,75.40
2019-03-11T10:32:47.723Z,73.84
2019-03-11T10:33:47.720Z,73.91
2019-03-11T10:34:47.818Z,74.88
2019-03-11T10:35:47.721Z,74.33
2019-03-11T10:36:47.700Z,73.91
2019-03-11T10:37:47.660Z,74.33
2019-03-11T10:38:47.679Z,74.53
2019-03-11T10:39:48.121Z,73.19
2019-03-11T10:40:47.667Z,74.88
2019-03-11T10:41:47.624Z,74.43
2019-03-11T10:42:47.655Z,74.57
2019-03-11T10:43:47.613Z,74.84
2019-03-11T10:44:47.602Z,75.88
2019-03-11T10:45:47.680Z,75.19
2019-03-11T10:46:47.562Z,75.40
2019-03-11T10:47:47.620Z,74.88
2019-03-11T10:48:47.549Z,75.40
2019-03-11T10:49:47.535Z,76.36
2019-03-11T10:50:47.568Z,76.36
2019-03-11T10:51:47.657Z,77.39
2019-03-11T10:52:47.525Z,77.95
2019-03-11T10:53:47.527Z,78.26
2019-03-11T10:54:47.510Z,78.78
2019-03-11T10:55:47.560Z,79.09
2019-03-11T10:56:47.498Z,80.54
2019-03-11T10:57:47.478Z,80.05
2019-03-11T10:58:47.439Z,79.50
2019-03-11T10:59:47.463Z,80.43
2019-03-11T11:00:47.546Z,79.60
2019-03-11T11:01:47.414Z,80.22
2019-03-11T11:02:47.404Z,80.54
2019-03-11T11:03:47.437Z,81.78
2019-03-11T11:04:48.081Z,81.20
2019-03-11T11:05:47.621Z,81.05
2019-03-11T11:06:47.431Z,80.22
2019-03-11T11:07:47.351Z,80.22
2019-03-11T11:08:47.331Z,79.50
2019-03-11T11:09:47.360Z,80.22
2019-03-11T11:10:47.378Z,80.54
2019-03-11T11:11:47.297Z,80.64
2019-03-11T11:12:47.300Z,80.22
2019-03-11T11:13:47.294Z,80.64
2019-03-11T11:14:47.307Z,79.09
2019-03-11T11:15:47.270Z,79.71
2019-03-11T11:16:47.348Z,80.33
2019-03-11T11:17:47.328Z,80.33
2019-03-11T11:18:47.808Z,80.95
2019-03-11T11:19:47.308Z,81.09
2019-03-11T11:20:47.195Z,81.05
2019-03-11T11:21:47.229Z,81.78
2019-03-11T11:22:47.253Z,81.61
2019-03-11T11:23:47.193Z,81.30
2019-03-11T11:24:47.202Z,81.71
2019-03-11T11:25:47.163Z,82.34
2019-03-11T11:26:47.156Z,82.89
2019-03-11T11:27:47.150Z,83.62
2019-03-11T11:28:47.220Z,83.00
2019-03-11T11:29:47.126Z,83.93
2019-03-11T11:30:47.137Z,84.13
2019-03-11T11:31:47.115Z,83.41
2019-03-11T11:32:47.080Z,84.03
2019-03-11T11:33:47.095Z,84.96
2019-03-11T11:34:47.110Z,85.52
2019-03-11T11:35:47.122Z,85.42
2019-03-11T11:36:47.050Z,85.73
2019-03-11T11:37:47.028Z,85.11
2019-03-11T11:38:47.043Z,85.83
2019-03-11T11:39:47.063Z,85.87
2019-03-11T11:40:47.001Z,85.97
2019-03-11T11:41:47.010Z,86.08
2019-03-11T11:42:47.021Z,85.87
2019-03-11T11:43:46.981Z,86.02
2019-03-11T11:44:46.973Z,86.54
2019-03-11T11:45:46.974Z,87.37
2019-03-11T11:46:46.952Z,86.74
2019-03-11T11:47:46.960Z,87.32
2019-03-11T11:48:46.931Z,86.74
2019-03-11T11:49:46.945Z,86.91
2019-03-11T11:50:46.936Z,86.74
2019-03-11T11:51:46.935Z,86.43
2019-03-11T11:52:46.900Z,85.91
2019-03-11T11:53:47.075Z,86.33
2019-03-11T11:54:46.877Z,85.81
2019-03-11T11:55:57.009Z,86.22
2019-03-11T11:56:47.859Z,86.33
2019-03-11T11:57:46.835Z,86.64
2019-03-11T11:58:46.837Z,86.95
2019-03-11T11:59:54.119Z,87.47
2019-03-11T12:00:47.804Z,86.70
2019-03-11T12:01:46.779Z,87.53
2019-03-11T12:02:46.812Z,87.53
2019-03-11T12:03:46.778Z,87.53
2019-03-11T12:04:46.784Z,86.49
2019-03-11T12:05:46.769Z,86.70
2019-03-11T12:06:46.758Z,85.97
2019-03-11T12:07:46.743Z,86.29
2019-03-11T12:08:46.753Z,85.21
2019-03-11T12:09:46.708Z,86.18
2019-03-11T12:10:46.694Z,86.45
2019-03-11T12:11:46.696Z,85.97
2019-03-11T12:12:46.731Z,85.97
2019-03-11T12:13:46.686Z,85.87
2019-03-11T12:14:46.638Z,86.08
2019-03-11T12:15:46.634Z,86.29
2019-03-11T12:16:46.636Z,85.87
2019-03-11T12:17:46.690Z,86.18
2019-03-11T12:18:46.670Z,86.80
2019-03-11T12:19:46.588Z,85.77
2019-03-11T12:20:46.591Z,86.70
2019-03-11T12:21:46.559Z,85.94
2019-03-11T12:22:46.571Z,85.97
2019-03-11T12:23:46.829Z,85.77
2019-03-11T12:24:46.547Z,85.63
2019-03-11T12:25:46.576Z,85.83
2019-03-11T12:26:46.534Z,85.73
2019-03-11T12:27:53.629Z,85.52
2019-03-11T12:28:47.516Z,85.42
2019-03-11T12:29:46.540Z,85.94
2019-03-11T12:30:46.478Z,85.52
2019-03-11T12:31:46.521Z,85.52
2019-03-11T12:32:46.460Z,84.17
2019-03-11T12:33:46.495Z,84.48
2019-03-11T12:34:46.482Z,84.69
2019-03-11T12:35:46.462Z,84.17
2019-03-11T12:36:46.426Z,84.23
2019-03-11T12:37:46.442Z,83.10
2019-03-11T12:38:46.404Z,83.62
2019-03-11T12:39:46.402Z,83.20
2019-03-11T12:40:46.457Z,83.51
2019-03-11T12:41:46.389Z,84.20
2019-03-11T12:42:46.364Z,84.13
2019-03-11T12:43:46.386Z,84.61
2019-03-11T12:44:46.357Z,83.89
2019-03-11T12:45:46.357Z,83.47
2019-03-11T12:46:46.357Z,84.92
2019-03-11T12:47:46.305Z,84.82
2019-03-11T12:48:46.300Z,83.37
2019-03-11T12:49:46.283Z,83.99
2019-03-11T12:50:46.297Z,84.20
2019-03-11T12:51:49.959Z,84.72
2019-03-11T12:52:46.289Z,83.99
2019-03-11T12:53:46.264Z,83.93
2019-03-11T12:54:46.262Z,82.17
2019-03-11T12:55:46.246Z,82.13
2019-03-11T12:56:46.227Z,82.54
2019-03-11T12:57:46.206Z,83.26